createdAt,value
2022-11-08T00:04:25.027Z,7.15
2022-11-08T00:09:48.414Z,10.03
2022-11-08T00:14:51.943Z,8.77
2022-11-08T00:19:55.911Z,9.17
2022-11-08T00:24:59.098Z,9.40
2022-11-08T00:30:02.118Z,8.47
2022-11-08T00:35:06.330Z,8.73
2022-11-08T00:40:10.233Z,8.80
2022-11-08T00:45:14.068Z,9.47
2022-11-08T00:50:16.925Z,6.27
2022-11-08T00:55:20.048Z,5.93
2022-11-08T01:00:23.301Z,7.23
2022-11-08T01:05:26.151Z,9.27
2022-11-08T01:10:29.037Z,6.03
2022-11-08T01:15:40.789Z,6.63
2022-11-08T01:20:46.339Z,6.17
2022-11-08T01:25:49.963Z,10.63
2022-11-08T01:30:52.647Z,7.17
2022-11-08T01:35:55.524Z,9.80
2022-11-08T01:40:58.402Z,7.87
2022-11-08T01:46:13.123Z,8.70
2022-11-08T01:51:21.002Z,6.43
2022-11-08T01:56:24.132Z,8.53
2022-11-08T02:01:27.116Z,8.53
2022-11-08T02:06:32.228Z,9.30
2022-11-08T02:11:36.790Z,7.23
2022-11-08T02:16:39.773Z,10.17
2022-11-08T02:21:58.303Z,11.57
2022-11-08T02:27:02.034Z,7.83
2022-11-08T02:32:06.511Z,9.13
2022-11-08T02:37:10.925Z,7.27
2022-11-08T02:42:19.554Z,11.67
2022-11-08T02:47:24.156Z,5.30
2022-11-08T02:52:27.145Z,10.47
2022-11-08T02:57:30.143Z,7.43
2022-11-08T03:02:33.109Z,8.13
2022-11-08T03:07:36.164Z,11.37
2022-11-08T03:12:40.016Z,8.63
2022-11-08T03:17:42.904Z,11.17
2022-11-08T03:22:46.533Z,9.10
2022-11-08T03:27:49.373Z,10.33
2022-11-08T03:32:53.646Z,11.77
2022-11-08T03:37:57.643Z,11.70
2022-11-08T03:43:00.659Z,11.63
2022-11-08T03:48:04.097Z,12.20
2022-11-08T03:53:07.036Z,7.37
2022-11-08T03:58:09.936Z,11.23
2022-11-08T04:03:12.813Z,8.30
2022-11-08T04:08:15.900Z,8.43
2022-11-08T04:13:37.857Z,9.80
2022-11-08T04:18:59.125Z,9.60
2022-11-08T04:24:02.161Z,8.40
2022-11-08T04:29:05.028Z,4.87
2022-11-08T04:34:08.279Z,5.97
2022-11-08T04:39:11.268Z,8.73
2022-11-08T04:44:15.658Z,8.37
2022-11-08T04:49:18.768Z,8.03
2022-11-08T04:54:21.797Z,10.50
2022-11-08T04:59:24.867Z,8.17
2022-11-08T05:04:27.673Z,9.10
2022-11-08T05:09:30.534Z,8.73
2022-11-08T05:14:33.532Z,8.23
2022-11-08T05:19:54.768Z,11.93
2022-11-08T05:24:57.602Z,9.53
2022-11-08T05:30:00.627Z,16.03
2022-11-08T05:35:03.861Z,19.17
2022-11-08T05:40:07.966Z,15.53
2022-11-08T05:45:10.980Z,11.53
2022-11-08T05:50:19.260Z,13.03
2022-11-08T05:55:22.498Z,15.57
2022-11-08T06:00:25.451Z,16.50
2022-11-08T06:05:28.282Z,18.17
2022-11-08T06:10:31.170Z,13.60
2022-11-08T06:15:35.049Z,12.57
2022-11-08T06:20:37.789Z,11.83
2022-11-08T06:25:43.875Z,13.57
2022-11-08T06:30:49.519Z,19.93
2022-11-08T06:35:52.655Z,15.07
2022-11-08T06:40:59.320Z,10.47
2022-11-08T06:46:02.637Z,14.93
2022-11-08T06:51:05.853Z,14.53
2022-11-08T06:56:10.006Z,16.90
2022-11-08T07:01:13.795Z,16.23
2022-11-08T07:06:16.728Z,14.93
2022-11-08T07:11:19.569Z,21.40
2022-11-08T07:16:22.390Z,20.73
2022-11-08T07:21:25.289Z,21.60
2022-11-08T07:26:28.145Z,16.73
2022-11-08T07:31:30.974Z,13.57
2022-11-08T07:36:33.864Z,15.57
2022-11-08T07:41:36.655Z,21.20
2022-11-08T07:46:39.508Z,10.47
2022-11-08T07:51:42.463Z,12.77
2022-11-08T07:56:45.338Z,14.77
2022-11-08T08:01:48.278Z,12.70
2022-11-08T08:06:51.325Z,9.97
2022-11-08T08:11:54.185Z,12.90
2022-11-08T08:16:57.875Z,15.10
2022-11-08T08:22:00.794Z,16.90
2022-11-08T08:27:03.703Z,16.20
2022-11-08T08:32:06.617Z,17.40
2022-11-08T08:37:10.242Z,13.87
2022-11-08T08:42:13.090Z,15.80
2022-11-08T08:47:16.085Z,15.70
2022-11-08T08:52:19.021Z,14.07
2022-11-08T08:57:21.971Z,13.53
2022-11-08T09:02:24.948Z,14.17
2022-11-08T09:07:27.851Z,17.13
2022-11-08T09:12:31.007Z,12.37
2022-11-08T09:17:34.082Z,14.83
2022-11-08T09:22:38.540Z,19.23
2022-11-08T09:27:41.666Z,18.43
2022-11-08T09:33:00.471Z,17.93
2022-11-08T09:38:04.653Z,19.47
2022-11-08T09:43:40.216Z,16.10
2022-11-08T09:48:45.419Z,17.40
2022-11-08T09:53:58.612Z,18.73
2022-11-08T09:59:20.427Z,22.57
2022-11-08T10:09:59.858Z,20.00
2022-11-08T10:15:30.990Z,21.20
2022-11-08T10:21:10.535Z,21.48
2022-11-08T10:26:27.093Z,25.27
2022-11-08T10:31:35.207Z,25.50
2022-11-08T10:36:47.638Z,28.93
2022-11-08T10:42:17.648Z,28.23
2022-11-08T10:47:29.690Z,27.30
2022-11-08T10:52:46.681Z,21.07
2022-11-08T10:57:49.731Z,22.90
2022-11-08T11:03:15.270Z,22.07
2022-11-08T11:08:19.176Z,24.53
2022-11-08T11:18:49.294Z,26.87
2022-11-08T11:23:58.582Z,24.60
2022-11-08T11:29:04.251Z,27.53
2022-11-08T11:34:19.385Z,28.70
2022-11-08T11:39:46.262Z,26.57
2022-11-08T11:45:15.643Z,20.80
2022-11-08T11:50:28.593Z,23.43
2022-11-08T11:55:43.481Z,25.17
2022-11-08T12:00:59.481Z,22.43
2022-11-08T12:06:12.435Z,25.90
2022-11-08T12:11:49.504Z,26.00
2022-11-08T12:17:32.811Z,24.10
2022-11-08T12:22:59.177Z,30.23
2022-11-08T12:28:08.925Z,23.23
2022-11-08T12:33:42.930Z,24.40
2022-11-08T12:38:59.669Z,25.17
2022-11-08T12:44:14.367Z,24.40
2022-11-08T12:49:44.352Z,19.97
2022-11-08T12:55:09.928Z,30.77
2022-11-08T13:00:20.213Z,31.90
2022-11-08T13:05:31.804Z,33.63
2022-11-08T13:16:14.673Z,28.13
2022-11-08T13:21:34.395Z,34.57
2022-11-08T13:26:42.404Z,36.33
2022-11-08T13:31:51.234Z,26.33
2022-11-08T13:37:43.094Z,29.00
2022-11-08T13:43:07.463Z,27.20
2022-11-08T13:48:36.660Z,30.30
2022-11-08T13:53:58.385Z,32.57
2022-11-08T14:04:30.884Z,45.30
2022-11-08T14:10:01.520Z,40.20
2022-11-08T14:15:22.261Z,42.47
2022-11-08T14:20:46.394Z,38.27
2022-11-08T14:26:23.649Z,45.53
2022-11-08T14:31:32.949Z,36.73
2022-11-08T14:36:35.995Z,36.87
2022-11-08T14:41:39.860Z,26.33
2022-11-08T14:46:42.779Z,26.30
2022-11-08T14:51:46.811Z,24.57
2022-11-08T14:56:50.446Z,26.30
2022-11-08T15:01:53.907Z,22.13
2022-11-08T15:06:59.048Z,28.63
2022-11-08T15:12:23.889Z,24.23
2022-11-08T15:17:34.605Z,19.37
2022-11-08T15:22:37.880Z,19.77
2022-11-08T15:27:56.602Z,23.13
2022-11-08T15:32:59.498Z,22.67
2022-11-08T15:38:06.788Z,26.23
2022-11-08T15:43:44.649Z,31.47
2022-11-08T15:48:59.019Z,27.33
2022-11-08T15:54:01.894Z,24.43
2022-11-08T15:59:05.011Z,28.13
2022-11-08T16:04:13.285Z,28.90
2022-11-08T16:09:16.234Z,34.60
2022-11-08T16:14:22.917Z,34.30
2022-11-08T16:19:25.981Z,35.20
2022-11-08T16:24:28.912Z,35.73
2022-11-08T16:29:34.981Z,38.60
2022-11-08T16:34:37.949Z,47.40
2022-11-08T16:39:40.828Z,40.23
2022-11-08T16:44:44.474Z,36.80
2022-11-08T16:49:51.291Z,45.37
2022-11-08T16:54:54.711Z,35.93
2022-11-08T16:59:57.611Z,35.73
2022-11-08T17:05:00.519Z,34.70
2022-11-08T17:10:03.607Z,37.73
2022-11-08T17:15:13.274Z,33.60
2022-11-08T17:20:19.984Z,36.93
2022-11-08T17:25:24.563Z,72.73
2022-11-08T17:30:27.439Z,51.40
2022-11-08T17:35:30.386Z,52.40
2022-11-08T17:40:33.579Z,43.13
2022-11-08T17:45:36.628Z,38.63
2022-11-08T17:50:39.746Z,35.47
2022-11-08T17:55:42.727Z,38.87
2022-11-08T18:00:45.676Z,33.27
2022-11-08T18:06:00.724Z,34.70
2022-11-08T18:11:04.630Z,35.53
2022-11-08T18:16:15.387Z,37.03
2022-11-08T18:21:19.726Z,41.55
2022-11-08T18:26:22.612Z,34.23
2022-11-08T18:31:26.407Z,41.53
2022-11-08T18:36:30.988Z,41.57
2022-11-08T18:41:34.140Z,36.70
2022-11-08T18:46:41.783Z,34.93
2022-11-08T18:51:51.862Z,44.87
2022-11-08T18:56:54.786Z,47.97
2022-11-08T19:01:57.693Z,40.33
2022-11-08T19:07:00.522Z,49.57
2022-11-08T19:12:06.103Z,41.80
2022-11-08T19:17:09.590Z,41.17
2022-11-08T19:22:12.429Z,33.03
2022-11-08T19:27:15.368Z,40.60
2022-11-08T19:32:18.170Z,41.37
2022-11-08T19:37:20.930Z,48.90
2022-11-08T19:42:24.040Z,39.17
2022-11-08T19:47:27.183Z,27.30
2022-11-08T19:52:30.017Z,35.17
2022-11-08T19:57:35.033Z,33.57
2022-11-08T20:02:38.990Z,44.17
2022-11-08T20:07:45.726Z,36.37
2022-11-08T20:12:48.525Z,37.97
2022-11-08T20:17:51.384Z,40.37
2022-11-08T20:22:54.235Z,33.87
2022-11-08T20:27:56.971Z,40.83
2022-11-08T20:33:00.322Z,38.20
2022-11-08T20:38:03.292Z,41.53
2022-11-08T20:43:06.207Z,33.80
2022-11-08T20:48:09.157Z,34.43
2022-11-08T20:53:11.989Z,34.40
2022-11-08T20:58:14.727Z,31.57
2022-11-08T21:03:19.055Z,32.97
2022-11-08T21:13:46.876Z,34.30
2022-11-08T21:18:49.679Z,35.53
2022-11-08T21:23:54.209Z,33.73
2022-11-08T21:28:56.959Z,33.70
2022-11-08T21:34:00.493Z,38.80
2022-11-08T21:39:03.406Z,34.57
2022-11-08T21:44:06.250Z,37.90
2022-11-08T21:49:13.445Z,34.17
2022-11-08T21:54:16.310Z,42.00
2022-11-08T21:59:19.161Z,42.30
2022-11-08T22:04:22.123Z,40.90
2022-11-08T22:09:24.961Z,28.33
2022-11-08T22:14:27.789Z,39.53
2022-11-08T22:19:30.948Z,41.73
2022-11-08T22:24:33.998Z,41.50
2022-11-08T22:29:36.846Z,34.27
2022-11-08T22:34:40.065Z,33.43
2022-11-08T22:39:42.903Z,32.80
2022-11-08T22:44:45.869Z,38.80
2022-11-08T22:49:48.830Z,31.03
2022-11-08T22:54:51.766Z,29.20
2022-11-08T22:59:54.634Z,30.33
2022-11-08T23:04:57.454Z,33.30
2022-11-08T23:10:00.362Z,37.37
2022-11-08T23:15:22.300Z,36.07
2022-11-08T23:20:43.709Z,41.60
2022-11-08T23:25:46.600Z,25.60
2022-11-08T23:31:07.800Z,34.43
2022-11-08T23:36:15.171Z,31.55
2022-11-08T23:41:36.253Z,26.10
2022-11-08T23:46:39.411Z,33.28
2022-11-08T23:51:42.211Z,28.50
2022-11-08T23:56:45.237Z,27.83
